Latest Weather Observations for Hopetoun Airport

IDV60801

Issued at 6:32 pm EDT Friday 9 December 2016 (issued every 30 minutes, with the page automatically refreshed every 10 minutes)

About weather observations | Map of weather stations | Latest weather observations for VIC | Other Formats
Station Details ID: 077010 Name: HOPETOUN AIRPORT Lat: -35.72 Lon: 142.36 Height: 77.3 m
Data from the previous 72 hours. | See also: Recent months at Hopetoun Airport
Date/Time
EDT
Temp
°C
App
Temp
°C
Dew
Point
°C
Rel
Hum
%
Delta-T
°C
Wind Press
QNH
hPa
Press
MSL
hPa
Rain since
9am
mm
Dir  Spd
km/h
Gust
km/h
Spd
kts
Gust
kts
09/06:30pm 21.6 16.5 3.3 30 8.7 SW 19 30 10 16 1019.2 1018.9 0.0
09/06:00pm 21.1 16.4 2.9 30 8.6 SSW 17 30 9 16 1019.0 1018.7 0.0
09/05:30pm 21.4 16.3 3.1 30 8.7 SSW 19 30 10 16 1019.0 1018.7 0.0
09/05:00pm 20.6 15.3 2.9 31 8.3 SSW 20 33 11 18 1019.0 1018.7 0.0
09/04:30pm 21.0 15.3 2.8 30 8.6 SSW 22 33 12 18 1019.2 1018.9 0.0
09/04:00pm 20.8 15.6 3.5 32 8.2 SW 20 32 11 17 1019.4 1019.1 0.0
09/03:30pm 20.5 14.6 3.7 33 8.0 SSW 24 41 13 22 1019.6 1019.3 0.0
09/03:00pm 19.9 14.8 3.2 33 7.9 S 19 32 10 17 1019.6 1019.3 0.0
09/02:30pm 20.0 14.9 3.3 33 7.9 S 19 32 10 17 1019.8 1019.5 0.0
09/02:00pm 18.9 13.7 3.5 36 7.2 SSW 20 32 11 17 1020.0 1019.7 0.0
09/01:30pm 19.9 14.0 4.0 35 7.6 SW 24 37 13 20 1020.0 1019.7 0.0
09/01:00pm 18.7 13.0 2.9 35 7.3 SSW 22 39 12 21 1020.4 1020.1 0.0
09/12:30pm 18.7 13.4 2.9 35 7.3 SSW 20 33 11 18 1020.3 1020.0 0.0
09/12:00pm 18.1 12.0 2.8 36 7.0 SSW 24 39 13 21 1020.2 1019.9 0.0
09/11:30am 17.2 11.5 3.1 39 6.5 SSW 22 37 12 20 1020.2 1019.9 0.0
09/11:00am 16.5 10.1 3.2 41 6.1 SW 26 41 14 22 1020.1 1019.8 0.0
09/10:30am 15.2 9.1 4.6 49 5.0 SSW 26 35 14 19 1020.0 1019.7 0.0
09/10:00am 15.7 9.3 5.0 49 5.1 SW 28 39 15 21 1019.8 1019.5 0.0
09/09:30am 14.2 8.5 5.0 54 4.3 SSW 24 33 13 18 1019.8 1019.5 0.0
09/09:00am 14.0 8.8 5.6 57 4.0 SSW 22 32 12 17 1019.3 1019.0 0.2
09/08:30am 13.0 7.2 6.1 63 3.3 SW 26 39 14 21 1018.8 1018.5 0.2
09/08:00am 11.6 7.8 7.7 77 1.9 SW 17 24 9 13 1018.4 1018.1 0.2
09/07:30am 9.9 6.0 7.2 83 1.3 WSW 17 20 9 11 1017.9 1017.6 0.2
09/07:00am 8.4 4.4 6.7 89 0.8 WSW 17 20 9 11 1017.5 1017.2 0.2
09/06:30am 7.5 3.8 6.4 93 0.5 WSW 15 19 8 10 1017.0 1016.7 0.2
09/06:00am 7.6 3.5 6.2 91 0.6 WSW 17 20 9 11 1016.3 1016.0 0.2
09/05:30am 7.9 3.8 6.4 90 0.7 WSW 17 20 9 11 1015.7 1015.5 0.2
09/05:00am 7.7 4.0 6.2 90 0.7 WSW 15 19 8 10 1015.1 1014.9 0.2
09/04:30am 7.9 4.6 6.2 89 0.8 WSW 13 17 7 9 1014.6 1014.4 0.2
09/04:00am 8.0 4.6 6.1 88 0.9 WSW 13 15 7 8 1014.2 1014.0 0.2
09/03:30am 8.4 5.1 6.2 86 1.0 W 13 15 7 8 1014.0 1013.8 0.2
09/03:00am 9.1 5.0 6.2 82 1.3 WSW 17 20 9 11 1014.0 1013.8 0.2
09/02:30am 9.5 5.4 6.0 79 1.6 WSW 17 22 9 12 1013.8 1013.6 0.2
09/02:00am 9.6 5.8 5.8 77 1.7 WSW 15 20 8 11 1013.7 1013.5 0.2
09/01:30am 10.2 5.4 5.6 73 2.1 WSW 20 28 11 15 1013.8 1013.6 0.2
09/01:00am 10.8 6.0 5.8 71 2.3 WSW 20 26 11 14 1013.6 1013.4 0.2
09/12:30am 11.3 5.7 5.6 68 2.6 WSW 24 33 13 18 1013.4 1013.2 0.2
09/12:00am 11.7 6.6 5.8 67 2.8 WSW 22 28 12 15 1013.5 1013.3 0.2
 
Date/Time
EDT
Temp
°C
App
Temp
°C
Dew
Point
°C
Rel
Hum
%
Delta-T
°C
Wind Press
QNH
hPa
Press
MSL
hPa
Rain since
9am
mm
Dir  Spd
km/h
Gust
km/h
Spd
kts
Gust
kts
08/11:30pm 12.0 6.9 6.1 67 2.8 WSW 22 32 12 17 1013.1 1012.9 0.2
08/11:00pm 12.7 6.9 6.3 65 3.0 WSW 26 32 14 17 1012.9 1012.7 0.2
08/10:30pm 13.3 6.2 6.4 63 3.3 WSW 33 44 18 24 1012.5 1012.2 0.2
08/10:03pm 14.0 6.9 6.4 60 3.7 WSW 33 52 18 28 1011.8 1011.5 0.2
08/10:00pm 14.1 7.3 6.9 62 3.5 WSW 32 43 17 23 1011.7 1011.4 0.2
08/09:30pm 14.1 7.4 7.2 63 3.4 WSW 32 43 17 23 1011.1 1010.8 0.2
08/09:13pm 14.5 7.0 6.1 57 4.0 SW 35 54 19 29 1010.7 1010.4 0.2
08/09:00pm 15.2 6.3 5.1 51 4.8 SW 41 50 22 27 1010.4 1010.1 0.2
08/08:30pm 16.2 7.2 4.6 46 5.5 SW 41 61 22 33 1009.5 1009.2 0.2
08/08:00pm 17.2 7.8 4.5 43 6.0 WSW 43 63 23 34 1008.5 1008.2 0.2
08/07:40pm 18.2 8.4 3.3 37 7.0 WSW 44 65 24 35 1007.9 1007.6 0.2
08/07:30pm 18.1 8.1 4.3 40 6.6 WSW 46 59 25 32 1007.8 1007.5 0.2
08/07:00pm 19.1 10.0 4.1 37 7.2 WSW 41 59 22 32 1007.1 1006.8 0.2
08/06:36pm 20.4 10.7 4.0 34 7.9 WSW 44 65 24 35 1006.4 1006.1 0.2
08/06:30pm 19.9 9.0 3.6 34 7.8 WSW 50 65 27 35 1006.2 1005.9 0.2
08/06:00pm 20.2 11.1 5.8 39 7.2 SW 43 63 23 34 1005.7 1005.4 0.2
08/05:38pm 20.9 9.6 3.6 32 8.3 WSW 52 74 28 40 1005.0 1004.7 0.2
08/05:30pm 20.7 9.6 4.3 34 8.0 WSW 52 65 28 35 1005.0 1004.7 0.2
08/05:19pm 21.1 10.1 2.9 30 8.6 WSW 50 70 27 38 1004.8 1004.5 0.2
08/05:00pm 20.2 9.2 5.1 37 7.4 WSW 52 67 28 36 1004.8 1004.5 0.2
08/04:30pm 22.0 12.1 5.0 33 8.4 WSW 46 69 25 37 1004.5 1004.2 0.2
08/04:09pm 20.7 10.7 4.3 34 8.0 WSW 46 65 25 35 1004.4 1004.1 0.2
08/04:00pm 20.8 10.5 4.8 35 7.9 WSW 48 63 26 34 1004.4 1004.1 0.2
08/03:41pm 21.9 10.8 4.5 32 8.5 W 52 70 28 38 1004.2 1003.9 0.2
08/03:30pm 21.9 11.2 6.6 37 7.8 WSW 52 70 28 38 1004.2 1003.9 0.2
08/03:00pm 21.5 11.4 5.8 36 7.9 W 48 67 26 36 1004.0 1003.7 0.2
08/02:30pm 20.7 11.7 7.3 42 6.9 WSW 44 65 24 35 1004.2 1003.9 0.2
08/02:00pm 22.2 11.4 6.0 35 8.2 W 52 72 28 39 1003.8 1003.5 0.2
08/01:37pm 21.5 10.1 5.0 34 8.2 WSW 54 74 29 40 1003.9 1003.6 0.2
08/01:30pm 21.7 10.6 6.4 37 7.8 WSW 54 72 29 39 1003.8 1003.5 0.2
08/01:00pm 21.2 9.6 5.6 36 7.8 WSW 56 74 30 40 1003.5 1003.2 0.2
08/12:34pm 20.6 10.2 7.9 44 6.6 WSW 52 70 28 38 1003.3 1003.0 0.2
08/12:30pm 20.2 9.8 7.6 44 6.5 WSW 52 69 28 37 1003.3 1003.0 0.2
08/12:05pm 20.7 9.0 5.5 37 7.5 WSW 56 76 30 41 1003.0 1002.7 0.2
08/12:00pm 20.8 10.3 5.6 37 7.6 WSW 50 67 27 36 1003.3 1003.0 0.2
08/11:30am 20.1 11.4 8.4 47 6.1 WSW 44 63 24 34 1003.1 1002.8 0.2
08/11:09am 18.8 11.0 9.8 56 4.8 W 41 65 22 35 1003.1 1002.8 0.2
08/11:00am 17.7 9.7 10.3 62 4.0 W 43 57 23 31 1003.1 1002.8 0.2
08/10:39am 17.2 10.8 10.8 66 3.4 W 35 57 19 31 1003.2 1002.9 0.2
08/10:30am 16.1 10.3 11.5 74 2.5 W 33 43 18 23 1003.1 1002.8 0.2
08/10:00am 15.4 9.9 12.0 80 1.9 WSW 32 43 17 23 1002.6 1002.4 0.2
08/09:30am 14.7 9.0 11.8 83 1.6 WSW 33 50 18 27 1002.9 1002.6 0.2
08/09:00am 14.4 8.1 12.3 87 1.1 WSW 37 54 20 29 1002.6 1002.4 3.6
08/08:30am 14.7 8.2 13.9 95 0.5 WSW 41 56 22 30 1002.2 1002.0 3.2
08/08:22am 15.1 9.4 14.3 95 0.5 WSW 37 56 20 30 1002.1 1001.9 3.2
08/08:03am 16.2 11.9 14.4 89 1.0 W 30 59 16 32 1001.5 1001.2 2.8
08/08:01am 18.7 16.1 17.7 94 0.6 WNW 28 54 15 29 1001.1 1000.8 2.6
08/08:00am 18.9 16.7 17.9 94 0.6 WNW 26 43 14 23 1000.8 1000.5 2.4
08/07:30am 19.4 16.8 17.7 90 1.0 NW 28 39 15 21 1000.3 1000.0 2.0
08/07:00am 19.1 17.9 17.6 91 0.9 NNW 20 28 11 15 999.9 999.6 2.0
08/06:30am 18.8 17.5 17.3 91 0.9 NNW 20 24 11 13 999.9 999.6 2.0
08/06:00am 18.6 18.9 17.1 91 0.9 NW 11 13 6 7 1000.2 999.9 1.6
08/05:30am 18.7 18.4 16.5 87 1.3 NW 13 17 7 9 1000.7 1000.4 1.2
08/05:00am 19.8 16.6 15.2 75 2.7 NNW 26 33 14 18 1000.8 1000.5 0.4
08/04:44am 23.1 18.2 12.7 52 6.0 NW 30 50 16 27 1000.6 1000.3 0.0
08/04:30am 25.3 21.6 10.0 38 8.5 NW 20 26 11 14 1000.1 999.8 0.0
08/04:00am 24.8 20.5 9.5 38 8.4 N 22 32 12 17 999.5 999.2 0.0
08/03:30am 25.4 19.7 8.4 34 9.2 N 28 39 15 21 999.9 999.6 0.0
08/03:00am 25.3 18.7 7.9 33 9.3 N 32 48 17 26 999.8 999.5 0.0
08/02:30am 25.1 19.2 7.7 33 9.2 N 28 37 15 20 1000.1 999.8 0.0
08/02:00am 24.9 19.9 8.0 34 9.1 N 24 33 13 18 1000.8 1000.5 0.0
08/01:30am 24.8 19.8 7.9 34 9.0 N 24 33 13 18 1001.0 1000.7 0.0
08/01:00am 25.0 19.5 7.6 33 9.3 N 26 35 14 19 1001.7 1001.5 0.0
08/12:30am 24.8 20.1 7.9 34 9.0 NNE 22 30 12 16 1002.6 1002.4 0.0
08/12:00am 23.9 19.6 7.9 36 8.5 NNE 20 26 11 14 1003.0 1002.7 0.0
 
Date/Time
EDT
Temp
°C
App
Temp
°C
Dew
Point
°C
Rel
Hum
%
Delta-T
°C
Wind Press
QNH
hPa
Press
MSL
hPa
Rain since
9am
mm
Dir  Spd
km/h
Gust
km/h
Spd
kts
Gust
kts
07/11:30pm 23.3 19.6 7.8 37 8.2 NNE 17 22 9 12 1003.9 1003.6 0.0
07/11:00pm 25.2 21.5 7.8 33 9.3 NNE 17 20 9 11 1004.6 1004.3 0.0
07/10:30pm 26.0 21.8 7.6 31 9.8 N 19 30 10 16 1005.0 1004.7 0.0
07/10:00pm 26.4 22.2 7.4 30 10.2 N 19 24 10 13 1005.4 1005.1 0.0
07/09:30pm 26.9 23.1 7.4 29 10.4 NNE 17 22 9 12 1005.7 1005.4 0.0
07/09:00pm 27.9 24.4 7.2 27 11.1 N 15 20 8 11 1006.0 1005.7 0.0
07/08:30pm 28.2 24.7 7.4 27 11.2 N 15 20 8 11 1006.2 1005.9 0.0
07/08:00pm 28.8 24.5 6.8 25 11.8 N 19 24 10 13 1006.2 1005.9 0.0
07/07:30pm 29.2 25.7 7.2 25 11.9 N 15 22 8 12 1006.4 1006.1 0.0
07/07:00pm 29.9 25.5 7.2 24 12.3 N 20 32 11 17 1006.5 1006.2 0.0
07/06:30pm 30.7 25.4 6.6 22 13.0 NW 24 30 13 16 1006.9 1006.6 0.0
07/06:00pm 30.2 25.3 6.8 23 12.6 NNW 22 32 12 17 1007.4 1007.1 0.0
07/05:30pm 30.3 26.4 6.9 23 12.6 NW 17 32 9 17 1008.1 1007.8 0.0
07/05:00pm 29.3 24.9 7.2 25 11.9 NNW 20 30 11 16 1008.9 1008.6 0.0
07/04:30pm 30.5 26.7 7.7 24 12.5 NW 17 35 9 19 1009.3 1009.0 0.0
07/04:00pm 31.0 26.2 7.5 23 12.9 WNW 22 32 12 17 1009.9 1009.6 0.0
07/03:30pm 30.3 26.1 7.5 24 12.4 NW 19 32 10 17 1010.6 1010.3 0.0
07/03:00pm 29.8 25.9 7.1 24 12.3 WNW 17 26 9 14 1011.2 1010.9 0.0
07/02:30pm 29.3 23.6 6.7 24 12.1 WNW 26 39 14 21 1011.6 1011.3 0.0
07/02:00pm 28.9 25.0 6.9 25 11.8 WNW 17 28 9 15 1012.2 1011.9 0.0
07/01:30pm 27.5 23.0 6.3 26 11.1 NW 19 30 10 16 1012.7 1012.4 0.0
07/01:00pm 27.2 23.0 5.5 25 11.2 NW 17 30 9 16 1013.2 1013.0 0.0
07/12:30pm 26.0 21.4 5.6 27 10.5 NNW 19 35 10 19 1013.6 1013.4 0.0
07/12:00pm 25.9 22.0 5.5 27 10.5 WNW 15 24 8 13 1014.2 1014.0 0.0
07/11:30am 24.8 20.7 6.1 30 9.6 NW 17 28 9 15 1014.6 1014.4 0.0
07/11:00am 23.6 19.7 5.5 31 9.2 NW 15 22 8 12 1014.9 1014.7 0.0
07/10:30am 22.6 20.1 6.4 35 8.3 NNW 9 17 5 9 1015.1 1014.9 0.0
07/10:00am 20.9 18.5 5.3 36 7.7 NE 7 13 4 7 1015.3 1015.1 0.0
07/09:30am 19.4 17.0 6.8 44 6.4 NNE 9 13 5 7 1015.5 1015.3 0.0
07/09:00am 17.5 14.3 6.7 49 5.4 NE 13 17 7 9 1015.4 1015.2 0.0
07/08:30am 16.1 13.3 6.8 54 4.6 E 11 15 6 8 1015.3 1015.1 0.0
07/08:00am 14.1 11.5 6.2 59 3.8 SE 9 15 5 8 1015.2 1015.0 0.0
07/07:30am 12.4 9.8 6.2 66 2.9 SE 9 17 5 9 1014.8 1014.6 0.0
07/07:00am 10.7 7.7 5.9 72 2.2 SSE 11 17 6 9 1014.6 1014.4 0.0
07/06:30am 9.7 7.0 5.7 76 1.8 SSE 9 13 5 7 1014.5 1014.3 0.0
07/06:00am 9.4 6.3 5.6 77 1.7 SSE 11 15 6 8 1014.3 1014.1 0.0
07/05:30am 8.3 6.0 4.7 78 1.6 S 6 9 3 5 1014.4 1014.2 0.0
07/05:00am 9.6 6.8 5.2 74 2.0 S 9 11 5 6 1014.2 1014.0 0.0
07/04:30am 9.6 7.2 5.2 74 2.0 S 7 9 4 5 1014.0 1013.8 0.0
07/04:00am 10.0 7.6 5.4 73 2.1 S 7 9 4 5 1014.0 1013.8 0.0
07/03:30am 10.9 7.8 5.4 69 2.5 S 11 17 6 9 1014.0 1013.8 0.0
07/03:00am 12.1 9.1 6.2 67 2.8 S 11 13 6 7 1014.1 1013.9 0.0
07/02:30am 13.1 10.3 7.1 67 2.9 S 11 15 6 8 1014.3 1014.1 0.0
07/02:00am 13.6 10.5 7.2 65 3.1 SSW 13 17 7 9 1014.6 1014.4 0.0
07/01:30am 14.2 10.7 7.0 62 3.5 SW 15 19 8 10 1014.8 1014.6 0.0
07/01:00am 14.8 11.2 6.9 59 3.9 SW 15 20 8 11 1015.0 1014.8 0.0
07/12:30am 15.8 11.4 6.5 54 4.6 SW 19 24 10 13 1015.0 1014.8 0.0
07/12:00am 16.6 11.5 5.9 49 5.2 SW 22 32 12 17 1015.1 1014.9 0.0
 
Date/Time
EDT
Temp
°C
App
Temp
°C
Dew
Point
°C
Rel
Hum
%
Delta-T
°C
Wind Press
QNH
hPa
Press
MSL
hPa
Rain since
9am
mm
Dir  Spd
km/h
Gust
km/h
Spd
kts
Gust
kts
06/11:30pm 17.4 11.8 5.4 45 5.8 SW 24 32 13 17 1015.0 1014.8 0.0
06/11:00pm 18.2 12.3 4.0 39 6.7 SW 24 37 13 20 1014.9 1014.7 0.0
06/10:30pm 14.9 11.3 3.1 45 5.3 WSW 11 24 6 13 1014.9 1014.7 0.0
06/10:00pm 16.6 13.8 2.2 38 6.5 SW 6 7 3 4 1014.6 1014.4 0.0
06/09:30pm 17.4 14.4 2.2 36 6.9 SSW 7 9 4 5 1014.4 1014.2 0.0
06/09:00pm 18.6 15.2 2.0 33 7.6 SW 9 11 5 6 1014.1 1013.9 0.0
06/08:30pm 21.3 17.6 2.1 28 9.0 SSW 11 15 6 8 1013.8 1013.6 0.0
06/08:00pm 23.8 19.7 2.0 24 10.4 SW 13 22 7 12 1013.5 1013.3 0.0
06/07:30pm 24.7 20.9 1.6 22 11.0 W 11 17 6 9 1013.3 1013.1 0.0
06/07:00pm 24.9 20.7 1.7 22 11.0 WSW 13 22 7 12 1012.9 1012.7 0.0

Other Formats:

Comma delimited format used in spreadsheet applications
http://www.bom.gov.au/fwo/IDV60801/IDV60801.94838.axf

JavaScript Object Notation format (JSON) in row-major order
http://www.bom.gov.au/fwo/IDV60801/IDV60801.94838.json